createdAt,value
2019-03-09T00:00:43.324Z,985.86
2019-03-09T00:01:50.169Z,985.78
2019-03-09T00:02:57.100Z,985.71
2019-03-09T00:04:03.829Z,985.79
2019-03-09T00:05:10.628Z,985.63
2019-03-09T00:06:17.500Z,985.64
2019-03-09T00:07:24.196Z,985.64
2019-03-09T00:08:30.935Z,985.63
2019-03-09T00:09:37.794Z,985.58
2019-03-09T00:10:44.561Z,985.64
2019-03-09T00:11:51.325Z,985.52
2019-03-09T00:12:58.219Z,985.65
2019-03-09T00:14:04.955Z,985.64
2019-03-09T00:15:11.723Z,985.74
2019-03-09T00:16:18.403Z,985.66
2019-03-09T00:17:25.679Z,985.61
2019-03-09T00:18:32.424Z,985.66
2019-03-09T00:19:39.294Z,985.57
2019-03-09T00:20:46.055Z,985.48
2019-03-09T00:21:52.893Z,985.53
2019-03-09T00:22:59.603Z,985.58
2019-03-09T00:24:06.938Z,985.50
2019-03-09T00:25:14.450Z,985.38
2019-03-09T00:26:21.106Z,985.35
2019-03-09T00:27:30.129Z,985.42
2019-03-09T00:28:34.640Z,985.34
2019-03-09T00:29:41.404Z,985.38
2019-03-09T00:30:48.090Z,985.44
2019-03-09T00:31:55.047Z,985.31
2019-03-09T00:33:01.930Z,985.45
2019-03-09T00:34:08.784Z,985.35
2019-03-09T00:35:15.567Z,985.41
2019-03-09T00:36:22.530Z,985.39
2019-03-09T00:37:29.414Z,985.38
2019-03-09T00:38:36.419Z,985.42
2019-03-09T00:39:43.307Z,985.46
2019-03-09T00:40:50.080Z,985.47
2019-03-09T00:41:56.745Z,985.44
2019-03-09T00:43:03.547Z,985.43
2019-03-09T00:44:10.364Z,985.43
2019-03-09T00:45:17.240Z,985.43
2019-03-09T00:46:24.010Z,985.40
2019-03-09T00:47:30.879Z,985.32
2019-03-09T00:48:37.829Z,985.43
2019-03-09T00:49:44.660Z,985.26
2019-03-09T00:50:51.369Z,985.38
2019-03-09T00:51:58.116Z,985.49
2019-03-09T00:53:04.964Z,985.34
2019-03-09T00:54:11.872Z,985.43
2019-03-09T00:55:18.767Z,985.36
2019-03-09T00:56:25.539Z,985.30
2019-03-09T00:57:32.360Z,985.35
2019-03-09T00:58:39.275Z,985.22
2019-03-09T00:59:46.129Z,985.28
2019-03-09T01:00:52.974Z,985.37
2019-03-09T01:01:59.935Z,985.26
2019-03-09T01:03:06.736Z,985.20
2019-03-09T01:04:13.590Z,985.19
2019-03-09T01:05:20.340Z,985.22
2019-03-09T01:06:27.212Z,985.29
2019-03-09T01:07:33.875Z,985.31
2019-03-09T01:08:41.092Z,985.45
2019-03-09T01:09:48.082Z,985.32
2019-03-09T01:10:54.889Z,985.18
2019-03-09T01:12:01.681Z,985.34
2019-03-09T01:13:08.647Z,985.26
2019-03-09T01:14:15.495Z,985.25
2019-03-09T01:15:22.248Z,985.19
2019-03-09T01:16:29.139Z,985.30
2019-03-09T01:17:35.775Z,985.27
2019-03-09T01:18:43.076Z,985.14
2019-03-09T01:19:49.812Z,985.29
2019-03-09T01:20:56.573Z,985.29
2019-03-09T01:22:03.459Z,985.14
2019-03-09T01:23:10.636Z,985.19
2019-03-09T01:24:17.517Z,985.27
2019-03-09T01:25:24.421Z,985.23
2019-03-09T01:26:31.232Z,985.18
2019-03-09T01:27:38.145Z,985.09
2019-03-09T01:28:44.903Z,985.13
2019-03-09T01:29:51.736Z,984.99
2019-03-09T01:30:58.712Z,985.03
2019-03-09T01:32:05.465Z,985.01
2019-03-09T01:33:12.445Z,985.05
2019-03-09T01:34:19.232Z,985.01
2019-03-09T01:35:26.071Z,985.02
2019-03-09T01:36:32.936Z,984.98
2019-03-09T01:37:39.729Z,985.09
2019-03-09T01:38:46.600Z,984.94
2019-03-09T01:39:53.323Z,984.97
2019-03-09T01:41:00.013Z,984.84
2019-03-09T01:42:06.862Z,984.90
2019-03-09T01:43:13.742Z,984.85
2019-03-09T01:44:20.519Z,984.73
2019-03-09T01:45:27.462Z,984.82
2019-03-09T01:46:34.235Z,984.74
2019-03-09T01:47:40.999Z,984.80
2019-03-09T01:48:47.896Z,984.71
2019-03-09T01:49:54.780Z,984.67
2019-03-09T01:51:01.615Z,984.70
2019-03-09T01:52:08.460Z,984.75
2019-03-09T01:53:15.340Z,984.62
2019-03-09T01:54:22.340Z,984.59
2019-03-09T01:55:29.110Z,984.58
2019-03-09T01:56:35.832Z,984.53
2019-03-09T01:57:42.593Z,984.50
2019-03-09T01:58:49.324Z,984.57
2019-03-09T01:59:56.048Z,984.49
2019-03-09T02:01:02.801Z,984.48
2019-03-09T02:02:09.639Z,984.51
2019-03-09T02:03:16.538Z,984.48
2019-03-09T02:04:23.244Z,984.47
2019-03-09T02:05:30.161Z,984.35
2019-03-09T02:06:36.921Z,984.31
2019-03-09T02:07:43.727Z,984.46
2019-03-09T02:08:50.557Z,984.32
2019-03-09T02:09:57.547Z,984.36
2019-03-09T02:11:04.506Z,984.38
2019-03-09T02:12:11.256Z,984.33
2019-03-09T02:13:18.119Z,984.41
2019-03-09T02:14:25.024Z,984.40
2019-03-09T02:15:31.770Z,984.42
2019-03-09T02:16:39.026Z,984.30
2019-03-09T02:17:45.591Z,984.38
2019-03-09T02:18:52.464Z,984.31
2019-03-09T02:19:59.256Z,984.38
2019-03-09T02:21:06.108Z,984.43
2019-03-09T02:22:12.872Z,984.24
2019-03-09T02:23:19.743Z,984.31
2019-03-09T02:24:26.611Z,984.22
2019-03-09T02:25:33.379Z,984.37
2019-03-09T02:26:40.232Z,984.19
2019-03-09T02:27:47.104Z,984.27
2019-03-09T02:28:53.865Z,984.20
2019-03-09T02:30:00.831Z,984.16
2019-03-09T02:31:07.557Z,984.18
2019-03-09T02:32:15.229Z,984.13
2019-03-09T02:33:21.549Z,984.21
2019-03-09T02:34:28.206Z,984.21
2019-03-09T02:35:34.993Z,984.27
2019-03-09T02:36:41.823Z,984.15
2019-03-09T02:37:48.707Z,984.29
2019-03-09T02:38:55.591Z,984.24
2019-03-09T02:40:02.569Z,984.23
2019-03-09T02:41:09.089Z,984.25
2019-03-09T02:42:15.880Z,984.24
2019-03-09T02:43:22.696Z,984.25
2019-03-09T02:44:29.488Z,984.17
2019-03-09T02:45:36.281Z,984.14
2019-03-09T02:46:43.149Z,984.12
2019-03-09T02:47:49.891Z,984.15
2019-03-09T02:48:56.922Z,984.16
2019-03-09T02:50:03.770Z,984.21
2019-03-09T02:51:10.771Z,983.93
2019-03-09T02:52:17.562Z,984.01
2019-03-09T02:53:24.300Z,984.05
2019-03-09T02:54:31.166Z,984.10
2019-03-09T02:55:38.113Z,984.05
2019-03-09T02:56:45.161Z,984.09
2019-03-09T02:57:51.999Z,984.06
2019-03-09T02:58:58.773Z,984.10
2019-03-09T03:00:05.541Z,984.14
2019-03-09T03:01:12.741Z,984.05
2019-03-09T03:02:19.545Z,984.17
2019-03-09T03:03:26.760Z,984.13
2019-03-09T03:04:33.505Z,983.98
2019-03-09T03:05:40.416Z,984.02
2019-03-09T03:06:47.335Z,984.09
2019-03-09T03:07:54.295Z,984.03
2019-03-09T03:09:01.082Z,983.93
2019-03-09T03:10:08.124Z,983.98
2019-03-09T03:11:15.176Z,984.04
2019-03-09T03:12:22.274Z,984.00
2019-03-09T03:13:29.185Z,984.06
2019-03-09T03:14:36.050Z,984.13
2019-03-09T03:15:43.018Z,984.00
2019-03-09T03:16:49.809Z,984.10
2019-03-09T03:17:56.626Z,984.10
2019-03-09T03:19:03.504Z,984.00
2019-03-09T03:20:10.376Z,984.07
2019-03-09T03:21:17.293Z,984.06
2019-03-09T03:22:24.121Z,983.95
2019-03-09T03:23:30.915Z,983.98
2019-03-09T03:24:37.746Z,984.06
2019-03-09T03:25:44.626Z,984.12
2019-03-09T03:26:51.344Z,984.06
2019-03-09T03:27:58.145Z,984.04
2019-03-09T03:29:05.036Z,984.07
2019-03-09T03:30:11.991Z,984.05
2019-03-09T03:31:18.863Z,984.10
2019-03-09T03:32:25.644Z,984.23
2019-03-09T03:33:32.573Z,984.09
2019-03-09T03:34:39.431Z,984.22
2019-03-09T03:35:46.204Z,984.25
2019-03-09T03:36:53.217Z,984.21
2019-03-09T03:38:00.025Z,984.26
2019-03-09T03:39:06.941Z,984.22
2019-03-09T03:40:13.894Z,984.33
2019-03-09T03:41:20.641Z,984.22
2019-03-09T03:42:27.457Z,984.14
2019-03-09T03:43:34.194Z,984.21
2019-03-09T03:44:41.052Z,984.21
2019-03-09T03:45:47.830Z,984.15
2019-03-09T03:46:54.621Z,984.26
2019-03-09T03:48:01.461Z,984.16
2019-03-09T03:49:08.445Z,984.19
2019-03-09T03:50:15.251Z,984.13
2019-03-09T03:51:22.260Z,984.16
2019-03-09T03:52:29.276Z,984.20
2019-03-09T03:53:36.154Z,984.30
2019-03-09T03:54:42.990Z,984.27
2019-03-09T03:55:49.851Z,984.42
2019-03-09T03:56:56.738Z,984.30
2019-03-09T03:58:03.667Z,984.34
2019-03-09T03:59:10.531Z,984.25
2019-03-09T04:00:17.390Z,984.24
2019-03-09T04:01:24.285Z,984.46
2019-03-09T04:02:31.267Z,984.36
2019-03-09T04:03:38.048Z,984.35
2019-03-09T04:04:44.976Z,984.33
2019-03-09T04:05:51.873Z,984.35
2019-03-09T04:06:58.808Z,984.27
2019-03-09T04:08:05.698Z,984.35
2019-03-09T04:09:12.556Z,984.54
2019-03-09T04:10:19.421Z,984.45
2019-03-09T04:11:26.293Z,984.50
2019-03-09T04:12:33.266Z,984.44
2019-03-09T04:13:40.133Z,984.55
2019-03-09T04:14:47.096Z,984.50
2019-03-09T04:15:53.965Z,984.55
2019-03-09T04:17:00.820Z,984.49
2019-03-09T04:18:07.675Z,984.55
2019-03-09T04:19:14.501Z,984.57
2019-03-09T04:20:21.266Z,984.48
2019-03-09T04:21:28.209Z,984.37
2019-03-09T04:22:35.065Z,984.47
2019-03-09T04:23:41.884Z,984.50
2019-03-09T04:24:48.790Z,984.37
2019-03-09T04:25:55.629Z,984.45
2019-03-09T04:27:02.643Z,984.46
2019-03-09T04:28:09.514Z,984.45
2019-03-09T04:29:16.365Z,984.43
2019-03-09T04:30:23.153Z,984.40
2019-03-09T04:31:30.216Z,984.25
2019-03-09T04:32:36.987Z,984.55
2019-03-09T04:33:48.428Z,984.45
2019-03-09T04:34:50.710Z,984.37
2019-03-09T04:35:57.584Z,984.44
2019-03-09T04:37:04.354Z,984.46
2019-03-09T04:38:11.341Z,984.37
2019-03-09T04:39:18.176Z,984.36
2019-03-09T04:40:24.989Z,984.36
2019-03-09T04:41:31.899Z,984.49
2019-03-09T04:42:38.720Z,984.53
2019-03-09T04:43:45.569Z,984.49
2019-03-09T04:44:52.333Z,984.53
2019-03-09T04:45:59.181Z,984.51
2019-03-09T04:47:05.944Z,984.48
2019-03-09T04:48:12.741Z,984.52
2019-03-09T04:49:19.801Z,984.60
2019-03-09T04:50:26.598Z,984.49
2019-03-09T04:51:33.416Z,984.51
2019-03-09T04:52:40.190Z,984.58
2019-03-09T04:53:47.029Z,984.48
2019-03-09T04:54:54.093Z,984.69
2019-03-09T04:56:00.745Z,984.66
2019-03-09T04:57:07.537Z,984.57
2019-03-09T04:58:14.404Z,984.58
2019-03-09T04:59:21.202Z,984.78
2019-03-09T05:00:27.957Z,984.72
2019-03-09T05:01:34.804Z,984.71
2019-03-09T05:02:41.587Z,984.67
2019-03-09T05:03:48.568Z,984.78
2019-03-09T05:04:55.633Z,984.76
2019-03-09T05:06:02.785Z,984.77
2019-03-09T05:07:09.647Z,984.83
2019-03-09T05:08:16.544Z,984.84
2019-03-09T05:09:23.337Z,984.82
2019-03-09T05:10:30.096Z,984.79
2019-03-09T05:11:36.965Z,984.80
2019-03-09T05:12:43.793Z,984.87
2019-03-09T05:13:50.477Z,984.86
2019-03-09T05:14:57.532Z,984.94
2019-03-09T05:16:04.307Z,984.95
2019-03-09T05:17:11.167Z,984.96
2019-03-09T05:18:18.021Z,984.88
2019-03-09T05:19:24.829Z,984.89
2019-03-09T05:20:31.607Z,984.96
2019-03-09T05:21:38.425Z,984.93
2019-03-09T05:22:45.192Z,985.02
2019-03-09T05:23:52.157Z,984.98
2019-03-09T05:24:58.928Z,985.06
2019-03-09T05:26:05.692Z,985.02
2019-03-09T05:27:12.559Z,984.96
2019-03-09T05:28:19.300Z,984.97
2019-03-09T05:29:26.099Z,985.02
2019-03-09T05:30:32.877Z,985.05
2019-03-09T05:31:39.720Z,984.98
2019-03-09T05:32:46.587Z,985.01
2019-03-09T05:33:53.323Z,984.96
2019-03-09T05:35:00.329Z,984.94
2019-03-09T05:36:07.090Z,985.02
2019-03-09T05:37:13.824Z,985.10
2019-03-09T05:38:20.615Z,985.12
2019-03-09T05:39:27.409Z,985.11
2019-03-09T05:40:34.231Z,985.18
2019-03-09T05:41:41.328Z,985.28
2019-03-09T05:42:48.196Z,985.23
2019-03-09T05:43:55.055Z,985.27
2019-03-09T05:45:01.841Z,985.27
2019-03-09T05:46:08.892Z,985.31
2019-03-09T05:47:15.768Z,985.25
2019-03-09T05:48:22.653Z,985.35
2019-03-09T05:49:29.490Z,985.39
2019-03-09T05:50:36.237Z,985.41
2019-03-09T05:51:43.304Z,985.45
2019-03-09T05:52:50.204Z,985.37
2019-03-09T05:53:56.938Z,985.41
2019-03-09T05:55:03.863Z,985.41
2019-03-09T05:56:10.511Z,985.46
2019-03-09T05:57:17.339Z,985.49
2019-03-09T05:58:24.220Z,985.46
2019-03-09T05:59:31.092Z,985.54
2019-03-09T06:00:37.921Z,985.53
2019-03-09T06:01:44.704Z,985.43
2019-03-09T06:02:51.433Z,985.42
2019-03-09T06:04:00.145Z,985.43
2019-03-09T06:05:05.144Z,985.42
2019-03-09T06:06:12.293Z,985.37
2019-03-09T06:07:19.365Z,985.44
2019-03-09T06:08:26.283Z,985.50
2019-03-09T06:09:33.220Z,985.53
2019-03-09T06:10:39.990Z,985.45
2019-03-09T06:11:46.920Z,985.54
2019-03-09T06:12:53.810Z,985.58
2019-03-09T06:14:00.797Z,985.63
2019-03-09T06:15:07.777Z,985.51
2019-03-09T06:16:14.631Z,985.46
2019-03-09T06:17:21.475Z,985.44
2019-03-09T06:18:28.265Z,985.54
2019-03-09T06:19:35.017Z,985.53
2019-03-09T06:20:41.831Z,985.61
2019-03-09T06:21:48.656Z,985.65
2019-03-09T06:22:55.513Z,985.59
2019-03-09T06:24:02.445Z,985.62
2019-03-09T06:25:09.344Z,985.59
2019-03-09T06:26:16.340Z,985.67
2019-03-09T06:27:23.093Z,985.64
2019-03-09T06:28:29.944Z,985.64
2019-03-09T06:29:36.825Z,985.67
2019-03-09T06:30:43.732Z,985.61
2019-03-09T06:31:50.552Z,985.69
2019-03-09T06:32:57.532Z,985.70
2019-03-09T06:34:04.396Z,985.72
2019-03-09T06:35:11.259Z,985.78
2019-03-09T06:36:18.161Z,985.71
2019-03-09T06:37:24.719Z,985.68
2019-03-09T06:38:31.698Z,985.82
2019-03-09T06:39:38.643Z,985.73
2019-03-09T06:40:45.448Z,985.64
2019-03-09T06:41:52.224Z,985.66
2019-03-09T06:42:58.925Z,985.63
2019-03-09T06:44:05.717Z,985.56
2019-03-09T06:45:12.528Z,985.57
2019-03-09T06:46:19.253Z,985.72
2019-03-09T06:47:26.186Z,985.64
2019-03-09T06:48:33.073Z,985.72
2019-03-09T06:49:40.084Z,985.75
2019-03-09T06:50:46.968Z,985.74
2019-03-09T06:51:53.893Z,985.68
2019-03-09T06:53:02.832Z,985.76
2019-03-09T06:54:07.828Z,985.85
2019-03-09T06:55:14.731Z,985.96
2019-03-09T06:56:21.647Z,986.03
2019-03-09T06:57:28.501Z,985.95
2019-03-09T06:58:35.287Z,986.00
2019-03-09T06:59:42.141Z,986.00
2019-03-09T07:00:48.906Z,985.95
2019-03-09T07:01:55.819Z,985.96
2019-03-09T07:03:02.713Z,985.92
2019-03-09T07:04:09.867Z,985.95
2019-03-09T07:05:16.757Z,985.83
2019-03-09T07:06:23.613Z,985.86
2019-03-09T07:07:30.440Z,985.83
2019-03-09T07:08:39.371Z,985.86
2019-03-09T07:09:44.491Z,985.84
2019-03-09T07:10:50.927Z,985.80
2019-03-09T07:11:57.789Z,985.88
2019-03-09T07:13:04.587Z,985.91
2019-03-09T07:14:11.414Z,985.95
2019-03-09T07:15:18.433Z,985.89
2019-03-09T07:16:25.603Z,985.97
2019-03-09T07:17:32.327Z,985.92
2019-03-09T07:18:39.097Z,985.97
2019-03-09T07:19:46.189Z,986.00
2019-03-09T07:20:53.034Z,985.96
2019-03-09T07:21:59.920Z,985.99
2019-03-09T07:23:06.714Z,985.93
2019-03-09T07:24:13.662Z,986.00
2019-03-09T07:25:20.410Z,985.99
2019-03-09T07:26:27.299Z,985.99
2019-03-09T07:27:34.247Z,986.04
2019-03-09T07:28:41.145Z,986.09
2019-03-09T07:29:47.996Z,986.10
2019-03-09T07:30:54.840Z,986.04
2019-03-09T07:32:01.831Z,986.14
2019-03-09T07:33:08.688Z,986.15
2019-03-09T07:34:15.597Z,986.27
2019-03-09T07:35:22.514Z,986.28
2019-03-09T07:36:29.392Z,986.27
2019-03-09T07:37:37.041Z,986.26
2019-03-09T07:38:42.912Z,986.39
2019-03-09T07:39:49.676Z,986.35
2019-03-09T07:40:56.544Z,986.38
2019-03-09T07:42:03.433Z,986.39
2019-03-09T07:43:10.231Z,986.36
2019-03-09T07:44:17.044Z,986.45
2019-03-09T07:45:23.812Z,986.32
2019-03-09T07:46:30.780Z,986.31
2019-03-09T07:47:37.664Z,986.47
2019-03-09T07:48:44.553Z,986.52
2019-03-09T07:49:51.276Z,986.49
2019-03-09T07:50:58.097Z,986.49
2019-03-09T07:52:04.922Z,986.50
2019-03-09T07:53:12.115Z,986.53
2019-03-09T07:54:18.980Z,986.57
2019-03-09T07:55:25.928Z,986.60
2019-03-09T07:56:32.787Z,986.59
2019-03-09T07:57:39.694Z,986.61
2019-03-09T07:58:46.511Z,986.56
2019-03-09T07:59:53.346Z,986.49
2019-03-09T08:01:00.154Z,986.61
2019-03-09T08:02:07.129Z,986.54
2019-03-09T08:03:14.219Z,986.63
2019-03-09T08:04:20.644Z,986.58
2019-03-09T08:05:27.534Z,986.67
2019-03-09T08:06:34.394Z,986.69
2019-03-09T08:07:41.305Z,986.62
2019-03-09T08:08:48.319Z,986.71
2019-03-09T08:09:55.060Z,986.81
2019-03-09T08:11:01.956Z,986.75
2019-03-09T08:12:08.831Z,986.82
2019-03-09T08:13:15.716Z,986.84
2019-03-09T08:14:22.573Z,986.90
2019-03-09T08:15:29.436Z,986.90
2019-03-09T08:16:36.299Z,987.02
2019-03-09T08:17:43.113Z,987.06
2019-03-09T08:18:50.148Z,987.04
2019-03-09T08:19:57.000Z,987.12
2019-03-09T08:21:03.878Z,987.08
2019-03-09T08:22:10.545Z,987.10
2019-03-09T08:23:18.093Z,987.08
2019-03-09T08:24:24.819Z,987.10
2019-03-09T08:25:31.650Z,987.12
2019-03-09T08:26:38.528Z,987.15
2019-03-09T08:27:45.324Z,987.08
2019-03-09T08:28:52.116Z,987.06
2019-03-09T08:29:58.921Z,987.14
2019-03-09T08:31:05.787Z,987.05
2019-03-09T08:32:12.786Z,987.06
2019-03-09T08:33:19.548Z,987.05
2019-03-09T08:34:26.394Z,987.09
2019-03-09T08:35:33.561Z,986.99
2019-03-09T08:36:40.023Z,986.93
2019-03-09T08:37:46.923Z,986.97
2019-03-09T08:38:53.572Z,987.07
2019-03-09T08:40:00.473Z,987.02
2019-03-09T08:41:07.499Z,987.06
2019-03-09T08:42:14.361Z,987.07
2019-03-09T08:43:21.158Z,987.03
2019-03-09T08:44:27.913Z,987.01
2019-03-09T08:45:34.658Z,986.99
2019-03-09T08:46:41.509Z,987.01
2019-03-09T08:47:52.261Z,987.00
2019-03-09T08:48:55.301Z,987.04
2019-03-09T08:50:02.337Z,987.15
2019-03-09T08:51:08.817Z,987.19
2019-03-09T08:52:15.808Z,987.21
2019-03-09T08:53:22.900Z,987.11
2019-03-09T08:54:29.689Z,987.16
2019-03-09T08:55:36.617Z,987.06
2019-03-09T08:56:43.451Z,987.04
2019-03-09T08:57:50.285Z,987.05
2019-03-09T08:58:57.192Z,987.09
2019-03-09T09:00:04.149Z,987.06
2019-03-09T09:01:10.945Z,987.11
2019-03-09T09:02:17.981Z,987.02
2019-03-09T09:03:24.814Z,987.00
2019-03-09T09:04:31.719Z,987.11
2019-03-09T09:05:39.674Z,987.18
2019-03-09T09:06:45.553Z,987.22
2019-03-09T09:07:54.362Z,987.17
2019-03-09T09:08:59.313Z,987.19
2019-03-09T09:10:06.154Z,987.13
2019-03-09T09:11:13.183Z,987.23
2019-03-09T09:12:20.041Z,987.23
2019-03-09T09:13:26.867Z,987.14
2019-03-09T09:14:33.705Z,987.14
2019-03-09T09:15:40.441Z,987.16
2019-03-09T09:16:47.436Z,987.07
2019-03-09T09:17:54.322Z,987.16
2019-03-09T09:19:01.313Z,987.14
2019-03-09T09:20:08.159Z,987.15
2019-03-09T09:21:15.129Z,987.22
2019-03-09T09:22:21.994Z,987.27
2019-03-09T09:23:28.776Z,987.25
2019-03-09T09:24:35.408Z,987.27
2019-03-09T09:25:42.802Z,987.29
2019-03-09T09:26:49.686Z,987.40
2019-03-09T09:27:56.751Z,987.27
2019-03-09T09:29:03.629Z,987.43
2019-03-09T09:30:10.475Z,987.40
2019-03-09T09:31:17.751Z,987.34
2019-03-09T09:32:24.720Z,987.46
2019-03-09T09:33:31.485Z,987.29
2019-03-09T09:34:38.244Z,987.33
2019-03-09T09:35:45.115Z,987.21
2019-03-09T09:36:51.989Z,987.21
2019-03-09T09:37:58.856Z,987.21
2019-03-09T09:39:05.612Z,987.19
2019-03-09T09:40:12.584Z,987.19
2019-03-09T09:41:19.572Z,987.15
2019-03-09T09:42:26.535Z,987.15
2019-03-09T09:43:33.310Z,987.15
2019-03-09T09:44:40.169Z,987.11
2019-03-09T09:45:46.945Z,987.05
2019-03-09T09:46:53.797Z,987.12
2019-03-09T09:48:00.676Z,987.00
2019-03-09T09:49:07.644Z,987.06
2019-03-09T09:50:14.518Z,986.96
2019-03-09T09:51:21.602Z,986.83
2019-03-09T09:52:28.443Z,986.70
2019-03-09T09:53:35.246Z,986.54
2019-03-09T09:54:42.292Z,986.56
2019-03-09T09:55:49.057Z,986.46
2019-03-09T09:56:55.894Z,986.53
2019-03-09T09:58:02.878Z,986.54
2019-03-09T09:59:09.761Z,986.49
2019-03-09T10:00:16.561Z,986.59
2019-03-09T10:01:23.705Z,986.61
2019-03-09T10:02:30.649Z,986.72
2019-03-09T10:03:37.421Z,986.73
2019-03-09T10:04:44.300Z,986.88
2019-03-09T10:05:51.140Z,986.91
2019-03-09T10:06:58.025Z,986.89
2019-03-09T10:08:04.672Z,986.95
2019-03-09T10:09:11.465Z,986.99
2019-03-09T10:10:18.371Z,987.03
2019-03-09T10:11:25.296Z,986.97
2019-03-09T10:12:32.146Z,986.92
2019-03-09T10:13:39.115Z,986.94
2019-03-09T10:14:45.895Z,987.00
2019-03-09T10:15:52.669Z,987.03
2019-03-09T10:16:59.510Z,986.98
2019-03-09T10:18:06.289Z,987.00
2019-03-09T10:19:13.146Z,987.02
2019-03-09T10:20:20.053Z,987.05
2019-03-09T10:21:26.997Z,987.15
2019-03-09T10:22:34.224Z,987.21
2019-03-09T10:23:40.520Z,987.14
2019-03-09T10:24:47.408Z,987.17
2019-03-09T10:25:54.367Z,987.10
2019-03-09T10:27:01.122Z,987.17
2019-03-09T10:28:07.988Z,987.18
2019-03-09T10:29:14.960Z,987.14
2019-03-09T10:30:21.759Z,987.03
2019-03-09T10:31:28.764Z,987.04
2019-03-09T10:32:35.588Z,987.01
2019-03-09T10:33:42.340Z,987.01
2019-03-09T10:34:49.100Z,986.93
2019-03-09T10:35:55.912Z,986.84
2019-03-09T10:37:03.432Z,986.83
2019-03-09T10:38:09.813Z,986.76
2019-03-09T10:39:16.665Z,986.76
2019-03-09T10:40:23.512Z,986.81
2019-03-09T10:41:30.400Z,987.00
2019-03-09T10:42:37.238Z,986.89
2019-03-09T10:43:44.036Z,986.76
2019-03-09T10:44:51.243Z,986.70
2019-03-09T10:45:57.656Z,986.79
2019-03-09T10:47:04.420Z,986.89
2019-03-09T10:48:11.240Z,986.81
2019-03-09T10:49:18.160Z,986.66
2019-03-09T10:50:26.085Z,986.91
2019-03-09T10:51:32.332Z,986.87
2019-03-09T10:52:39.166Z,986.78
2019-03-09T10:53:46.045Z,986.64
2019-03-09T10:54:52.837Z,986.70
2019-03-09T10:55:59.663Z,986.76
2019-03-09T10:57:06.436Z,986.87
2019-03-09T10:58:13.300Z,986.99
2019-03-09T10:59:20.073Z,986.99
2019-03-09T11:00:26.969Z,986.88
2019-03-09T11:01:33.823Z,986.88
2019-03-09T11:02:40.581Z,986.99
2019-03-09T11:03:47.319Z,986.77
2019-03-09T11:04:54.228Z,986.69
2019-03-09T11:06:02.424Z,986.41
2019-03-09T11:07:07.796Z,986.38
2019-03-09T11:08:14.709Z,986.28
2019-03-09T11:09:21.598Z,986.22
2019-03-09T11:10:28.469Z,986.28
2019-03-09T11:11:35.305Z,986.55
2019-03-09T11:12:42.094Z,986.57
2019-03-09T11:13:52.055Z,986.58
2019-03-09T11:14:55.896Z,986.55
2019-03-09T11:16:02.959Z,986.49
2019-03-09T11:17:09.784Z,986.34
2019-03-09T11:18:16.565Z,986.16
2019-03-09T11:19:23.376Z,986.37
2019-03-09T11:20:30.201Z,986.64
2019-03-09T11:21:37.381Z,986.31
2019-03-09T11:22:44.205Z,986.26
2019-03-09T11:23:51.082Z,986.48
2019-03-09T11:25:03.407Z,986.40
2019-03-09T11:26:04.815Z,986.48
2019-03-09T11:27:11.668Z,986.43
2019-03-09T11:28:18.468Z,986.28
2019-03-09T11:29:25.304Z,986.18
2019-03-09T11:30:32.277Z,986.24
2019-03-09T11:31:39.233Z,986.22
2019-03-09T11:32:46.088Z,986.25
2019-03-09T11:33:52.961Z,986.14
2019-03-09T11:34:59.825Z,986.21
2019-03-09T11:36:06.728Z,986.32
2019-03-09T11:37:13.556Z,986.34
2019-03-09T11:38:20.433Z,986.52
2019-03-09T11:39:27.415Z,986.32
2019-03-09T11:40:34.201Z,986.38
2019-03-09T11:41:41.033Z,986.37
2019-03-09T11:42:48.011Z,986.32
2019-03-09T11:43:54.989Z,986.23
2019-03-09T11:45:01.849Z,986.26
2019-03-09T11:46:09.044Z,986.36
2019-03-09T11:47:15.930Z,986.45
2019-03-09T11:48:22.760Z,986.25
2019-03-09T11:49:29.725Z,986.31
2019-03-09T11:50:36.570Z,986.25
2019-03-09T11:51:43.781Z,986.31
2019-03-09T11:52:50.116Z,986.30
2019-03-09T11:53:56.961Z,986.41
2019-03-09T11:55:03.868Z,986.44
2019-03-09T11:56:10.854Z,986.50
2019-03-09T11:57:17.800Z,986.55
2019-03-09T11:58:24.581Z,986.56
2019-03-09T11:59:31.344Z,986.50
2019-03-09T12:00:38.296Z,986.57
2019-03-09T12:01:45.311Z,986.56
2019-03-09T12:02:52.150Z,986.55
2019-03-09T12:03:59.060Z,986.46
2019-03-09T12:05:05.705Z,986.54
2019-03-09T12:06:12.973Z,986.44
2019-03-09T12:07:19.753Z,986.51
2019-03-09T12:08:26.550Z,986.49
2019-03-09T12:09:33.319Z,986.42
2019-03-09T12:10:40.109Z,986.36
2019-03-09T12:11:47.094Z,986.40
2019-03-09T12:12:54.045Z,986.30
2019-03-09T12:14:00.816Z,986.28
2019-03-09T12:15:07.679Z,986.19
2019-03-09T12:16:14.661Z,986.29
2019-03-09T12:17:21.468Z,986.23
2019-03-09T12:18:28.275Z,986.17
2019-03-09T12:19:35.032Z,986.03
2019-03-09T12:20:41.926Z,985.73
2019-03-09T12:21:48.672Z,985.79
2019-03-09T12:23:01.082Z,985.77
2019-03-09T12:24:02.514Z,985.63
2019-03-09T12:25:09.491Z,985.57
2019-03-09T12:26:16.341Z,985.65
2019-03-09T12:27:23.173Z,985.57
2019-03-09T12:28:30.188Z,985.54
2019-03-09T12:29:38.641Z,985.56
2019-03-09T12:30:43.912Z,985.41
2019-03-09T12:31:50.811Z,985.52
2019-03-09T12:32:57.649Z,985.51
2019-03-09T12:34:04.400Z,985.36
2019-03-09T12:35:11.286Z,985.46
2019-03-09T12:36:18.245Z,985.34
2019-03-09T12:37:25.257Z,985.41
2019-03-09T12:38:32.200Z,985.37
2019-03-09T12:39:39.073Z,985.39
2019-03-09T12:40:46.045Z,985.38
2019-03-09T12:41:52.833Z,985.31
2019-03-09T12:42:59.677Z,985.43
2019-03-09T12:44:06.564Z,985.36
2019-03-09T12:45:13.387Z,985.33
2019-03-09T12:46:20.177Z,985.41
2019-03-09T12:47:27.666Z,985.40
2019-03-09T12:48:34.280Z,985.41
2019-03-09T12:49:41.688Z,985.37
2019-03-09T12:50:48.513Z,985.37
2019-03-09T12:51:56.556Z,985.35
2019-03-09T12:53:02.546Z,985.32
2019-03-09T12:54:09.469Z,985.30
2019-03-09T12:55:16.644Z,985.16
2019-03-09T12:56:22.985Z,985.10
2019-03-09T12:57:29.993Z,985.14
2019-03-09T12:58:36.837Z,985.18
2019-03-09T12:59:43.704Z,985.14
2019-03-09T13:00:50.573Z,985.01
2019-03-09T13:01:57.545Z,985.09
2019-03-09T13:03:04.333Z,984.95
2019-03-09T13:04:11.269Z,985.06
2019-03-09T13:05:18.148Z,985.02
2019-03-09T13:06:24.949Z,985.00
2019-03-09T13:07:31.875Z,985.06
2019-03-09T13:08:38.689Z,984.96
2019-03-09T13:09:45.451Z,984.90
2019-03-09T13:10:52.378Z,984.97
2019-03-09T13:11:59.200Z,984.87
2019-03-09T13:13:06.038Z,984.77
2019-03-09T13:14:12.773Z,984.73
2019-03-09T13:15:19.641Z,984.75
2019-03-09T13:16:26.558Z,984.90
2019-03-09T13:17:33.407Z,984.63
2019-03-09T13:18:40.336Z,984.69
2019-03-09T13:19:47.105Z,984.64
2019-03-09T13:20:54.045Z,984.61
2019-03-09T13:22:01.168Z,984.46
2019-03-09T13:23:08.147Z,984.54
2019-03-09T13:24:15.051Z,984.49
2019-03-09T13:25:22.136Z,984.50
2019-03-09T13:26:28.978Z,984.54
2019-03-09T13:27:35.848Z,984.43
2019-03-09T13:28:42.748Z,984.47
2019-03-09T13:29:49.524Z,984.57
2019-03-09T13:30:56.702Z,984.56
2019-03-09T13:32:03.501Z,984.52
2019-03-09T13:33:10.347Z,984.69
2019-03-09T13:34:17.312Z,984.43
2019-03-09T13:35:24.085Z,984.52
2019-03-09T13:36:31.050Z,984.65
2019-03-09T13:37:37.852Z,984.36
2019-03-09T13:38:44.785Z,984.55
2019-03-09T13:39:51.630Z,984.55
2019-03-09T13:40:58.508Z,984.59
2019-03-09T13:42:05.301Z,984.60
2019-03-09T13:43:12.160Z,984.60
2019-03-09T13:44:18.888Z,984.53
2019-03-09T13:45:25.778Z,984.59
2019-03-09T13:46:34.696Z,984.57
2019-03-09T13:47:39.626Z,984.46
2019-03-09T13:48:46.622Z,984.69
2019-03-09T13:49:53.570Z,984.82
2019-03-09T13:51:00.525Z,984.91
2019-03-09T13:52:07.496Z,985.03
2019-03-09T13:53:14.405Z,985.10
2019-03-09T13:54:21.126Z,985.18